createdAt,value
2019-02-22T00:00:20.167Z,97.48
2019-02-22T00:03:24.033Z,97.22
2019-02-22T00:06:27.862Z,97.23
2019-02-22T00:09:31.726Z,97.14
2019-02-22T00:12:35.589Z,96.90
2019-02-22T00:15:39.659Z,97.16
2019-02-22T00:18:43.653Z,97.31
2019-02-22T00:21:47.524Z,97.32
2019-02-22T00:24:51.427Z,97.32
2019-02-22T00:27:55.435Z,97.20
2019-02-22T00:30:59.276Z,97.29
2019-02-22T00:34:03.233Z,97.64
2019-02-22T00:37:07.358Z,97.80
2019-02-22T00:40:11.242Z,97.93
2019-02-22T00:43:15.222Z,98.07
2019-02-22T00:46:19.050Z,98.12
2019-02-22T00:49:22.967Z,98.00
2019-02-22T00:52:26.781Z,98.06
2019-02-22T00:55:30.616Z,98.03
2019-02-22T00:58:34.506Z,98.04
2019-02-22T01:01:38.511Z,98.07
2019-02-22T01:04:42.472Z,98.31
2019-02-22T01:07:46.396Z,98.43
2019-02-22T01:10:50.210Z,98.33
2019-02-22T01:13:54.056Z,98.17
2019-02-22T01:16:58.146Z,98.02
2019-02-22T01:20:02.050Z,97.72
2019-02-22T01:23:05.905Z,97.57
2019-02-22T01:26:09.791Z,97.12
2019-02-22T01:29:13.633Z,97.09
2019-02-22T01:32:17.474Z,97.11
2019-02-22T01:35:21.371Z,97.30
2019-02-22T01:38:25.181Z,97.38
2019-02-22T01:41:29.132Z,96.92
2019-02-22T01:44:33.102Z,96.68
2019-02-22T01:47:36.910Z,97.06
2019-02-22T01:50:40.799Z,96.70
2019-02-22T01:53:44.618Z,96.36
2019-02-22T01:56:48.444Z,96.53
2019-02-22T01:59:52.311Z,96.50
2019-02-22T02:02:56.132Z,96.16
2019-02-22T02:05:59.956Z,95.82
2019-02-22T02:09:05.883Z,95.28
2019-02-22T02:12:09.912Z,94.84
2019-02-22T02:15:14.054Z,94.69
2019-02-22T02:18:17.888Z,95.45
2019-02-22T02:21:21.776Z,94.93
2019-02-22T02:24:25.696Z,95.30
2019-02-22T02:27:29.605Z,95.49
2019-02-22T02:30:33.584Z,95.71
2019-02-22T02:33:37.593Z,96.01
2019-02-22T02:36:41.446Z,96.34
2019-02-22T02:39:45.413Z,96.13
2019-02-22T02:42:49.296Z,96.01
2019-02-22T02:45:53.159Z,96.07
2019-02-22T02:48:56.958Z,95.68
2019-02-22T02:52:00.774Z,95.62
2019-02-22T02:55:04.723Z,95.93
2019-02-22T02:58:08.710Z,95.96
2019-02-22T03:01:12.510Z,95.07
2019-02-22T03:04:16.398Z,95.12
2019-02-22T03:07:37.690Z,95.11
2019-02-22T03:10:41.554Z,95.15
2019-02-22T03:13:45.410Z,95.43
2019-02-22T03:16:49.250Z,95.60
2019-02-22T03:19:53.135Z,95.56
2019-02-22T03:22:57.157Z,95.52
2019-02-22T03:26:01.059Z,95.58
2019-02-22T03:29:05.000Z,95.52
2019-02-22T03:32:08.849Z,95.48
2019-02-22T03:35:13.201Z,95.46
2019-02-22T03:38:17.043Z,94.86
2019-02-22T03:41:31.873Z,94.89
2019-02-22T03:44:26.447Z,94.92
2019-02-22T03:47:30.288Z,94.83
2019-02-22T03:50:34.223Z,95.07
2019-02-22T03:53:50.070Z,94.99
2019-02-22T03:56:53.937Z,95.04
2019-02-22T03:59:57.856Z,95.05
2019-02-22T04:03:01.839Z,94.09
2019-02-22T04:06:05.726Z,94.26
2019-02-22T04:09:12.506Z,94.39
2019-02-22T04:12:16.297Z,94.57
2019-02-22T04:15:20.241Z,94.81
2019-02-22T04:18:24.100Z,94.90
2019-02-22T04:21:27.915Z,94.87
2019-02-22T04:24:31.853Z,94.75
2019-02-22T04:27:35.655Z,94.18
2019-02-22T04:30:39.553Z,94.30
2019-02-22T04:33:43.409Z,94.31
2019-02-22T04:36:47.330Z,94.61
2019-02-22T04:39:51.205Z,94.76
2019-02-22T04:42:55.279Z,94.97
2019-02-22T04:45:59.156Z,95.17
2019-02-22T04:49:05.019Z,95.35
2019-02-22T04:52:09.328Z,95.32
2019-02-22T04:55:17.769Z,95.53
2019-02-22T04:58:21.913Z,95.24
2019-02-22T05:01:25.911Z,95.41
2019-02-22T05:04:30.325Z,95.55
2019-02-22T05:07:34.718Z,95.32
2019-02-22T05:10:39.473Z,95.49
2019-02-22T05:13:43.739Z,95.61
2019-02-22T05:16:47.607Z,95.78
2019-02-22T05:19:51.494Z,95.91
2019-02-22T05:23:03.373Z,95.79
2019-02-22T05:26:01.252Z,95.71
2019-02-22T05:29:05.534Z,95.56
2019-02-22T05:32:10.362Z,95.06
2019-02-22T05:35:14.817Z,94.58
2019-02-22T05:38:19.214Z,94.33
2019-02-22T05:41:23.576Z,94.37
2019-02-22T05:44:28.622Z,93.91
2019-02-22T05:47:33.039Z,93.32
2019-02-22T05:50:37.248Z,93.36
2019-02-22T05:53:41.082Z,93.55
2019-02-22T05:56:45.005Z,93.55
2019-02-22T05:59:48.883Z,92.98
2019-02-22T06:02:52.780Z,93.15
2019-02-22T06:05:56.690Z,93.36
2019-02-22T06:09:00.824Z,93.42
2019-02-22T06:12:05.732Z,92.70
2019-02-22T06:15:10.505Z,92.54
2019-02-22T06:18:14.868Z,92.15
2019-02-22T06:21:19.026Z,92.46
2019-02-22T06:24:23.592Z,92.70
2019-02-22T06:27:27.698Z,92.39
2019-02-22T06:30:31.817Z,92.39
2019-02-22T06:33:35.845Z,92.40
2019-02-22T06:36:39.835Z,92.49
2019-02-22T06:39:45.461Z,92.31
2019-02-22T06:42:49.321Z,91.94
2019-02-22T06:45:54.384Z,92.06
2019-02-22T06:48:58.425Z,91.77
2019-02-22T06:52:02.321Z,91.67
2019-02-22T06:55:06.721Z,91.38
2019-02-22T06:58:11.829Z,91.23
2019-02-22T07:01:15.797Z,91.05
2019-02-22T07:04:19.626Z,90.91
2019-02-22T07:07:26.632Z,90.78
2019-02-22T07:10:35.173Z,90.96
2019-02-22T07:13:39.178Z,90.67
2019-02-22T07:16:43.282Z,90.92
2019-02-22T07:19:47.118Z,90.88
2019-02-22T07:22:52.520Z,90.62
2019-02-22T07:25:56.345Z,90.38
2019-02-22T07:29:00.601Z,90.20
2019-02-22T07:32:06.184Z,89.86
2019-02-22T07:35:10.200Z,89.77
2019-02-22T07:38:14.092Z,89.41
2019-02-22T07:41:17.939Z,89.41
2019-02-22T07:44:21.769Z,89.17
2019-02-22T07:47:25.763Z,88.81
2019-02-22T07:50:29.668Z,88.01
2019-02-22T07:53:33.502Z,87.76
2019-02-22T07:56:37.338Z,87.52
2019-02-22T07:59:41.231Z,87.20
2019-02-22T08:02:45.230Z,87.91
2019-02-22T08:05:49.050Z,87.16
2019-02-22T08:08:53.051Z,87.07
2019-02-22T08:11:57.063Z,86.70
2019-02-22T08:15:01.032Z,86.29
2019-02-22T08:18:04.848Z,86.34
2019-02-22T08:21:09.011Z,86.27
2019-02-22T08:24:13.132Z,86.29
2019-02-22T08:27:16.948Z,85.63
2019-02-22T08:30:20.938Z,85.03
2019-02-22T08:33:24.783Z,85.65
2019-02-22T08:36:28.639Z,85.68
2019-02-22T08:39:32.702Z,85.48
2019-02-22T08:42:36.540Z,85.00
2019-02-22T08:45:40.445Z,85.13
2019-02-22T08:48:44.293Z,85.35
2019-02-22T08:51:48.173Z,85.97
2019-02-22T08:54:51.993Z,85.51
2019-02-22T08:57:55.819Z,86.29
2019-02-22T09:01:00.880Z,86.00
2019-02-22T09:04:04.611Z,85.46
2019-02-22T09:07:08.426Z,85.29
2019-02-22T09:10:12.683Z,84.58
2019-02-22T09:13:16.579Z,85.22
2019-02-22T09:16:20.426Z,84.81
2019-02-22T09:19:24.349Z,84.01
2019-02-22T09:22:28.277Z,84.47
2019-02-22T09:25:32.149Z,84.51
2019-02-22T09:28:35.999Z,84.60
2019-02-22T09:31:39.827Z,84.40
2019-02-22T09:34:46.027Z,83.78
2019-02-22T09:37:49.160Z,83.40
2019-02-22T09:40:52.992Z,83.86
2019-02-22T09:43:56.876Z,83.69
2019-02-22T09:47:00.675Z,83.07
2019-02-22T09:50:04.638Z,82.04
2019-02-22T09:53:08.518Z,83.34
2019-02-22T09:56:12.344Z,82.18
2019-02-22T09:59:16.181Z,82.54
2019-02-22T10:02:20.003Z,82.47
2019-02-22T10:05:23.809Z,81.61
2019-02-22T10:08:27.620Z,81.08
2019-02-22T10:11:31.466Z,81.41
2019-02-22T10:14:35.313Z,81.72
2019-02-22T10:17:39.125Z,82.06
2019-02-22T10:20:42.929Z,80.81
2019-02-22T10:23:47.101Z,79.45
2019-02-22T10:26:50.906Z,80.70
2019-02-22T10:29:54.774Z,80.70
2019-02-22T10:32:58.599Z,78.60
2019-02-22T10:36:02.433Z,79.15
2019-02-22T10:39:06.679Z,77.52
2019-02-22T10:42:10.469Z,78.09
2019-02-22T10:45:14.393Z,78.96
2019-02-22T10:48:18.211Z,79.20
2019-02-22T10:51:22.050Z,79.42
2019-02-22T10:54:25.895Z,79.66
2019-02-22T10:57:29.708Z,78.33
2019-02-22T11:00:33.620Z,79.45
2019-02-22T11:03:37.446Z,79.05
2019-02-22T11:06:41.255Z,78.51
2019-02-22T11:09:45.194Z,78.62
2019-02-22T11:12:49.028Z,79.53
2019-02-22T11:15:52.970Z,78.35
2019-02-22T11:18:56.790Z,78.58
2019-02-22T11:22:00.718Z,78.13
2019-02-22T11:25:05.729Z,78.50
2019-02-22T11:28:09.718Z,78.02
2019-02-22T11:31:15.061Z,76.89
2019-02-22T11:34:18.917Z,76.26
2019-02-22T11:37:22.823Z,76.07
2019-02-22T11:40:26.669Z,76.01
2019-02-22T11:43:30.460Z,74.92
2019-02-22T11:46:34.288Z,76.42
2019-02-22T11:49:38.180Z,75.18
2019-02-22T11:52:42.129Z,74.88
2019-02-22T11:55:45.939Z,74.57
2019-02-22T11:58:49.878Z,73.34
2019-02-22T12:01:53.897Z,73.52
2019-02-22T12:04:57.717Z,73.56
2019-02-22T12:08:03.518Z,72.77
2019-02-22T12:11:07.279Z,73.95
2019-02-22T12:14:11.279Z,73.42
2019-02-22T12:17:15.064Z,74.39
2019-02-22T12:20:18.889Z,74.55
2019-02-22T12:23:22.803Z,71.85
2019-02-22T12:26:26.651Z,71.95
2019-02-22T12:29:30.534Z,73.13
2019-02-22T12:32:34.372Z,72.46
2019-02-22T12:35:38.302Z,73.41
2019-02-22T12:38:42.131Z,73.21
2019-02-22T12:41:45.933Z,72.22
2019-02-22T12:44:49.850Z,72.68
2019-02-22T12:47:53.659Z,72.03
2019-02-22T12:50:57.501Z,71.70
2019-02-22T12:54:01.395Z,71.53
2019-02-22T12:57:05.222Z,72.30
2019-02-22T13:00:11.401Z,72.23
2019-02-22T13:03:15.215Z,72.94
2019-02-22T13:06:19.126Z,72.78
2019-02-22T13:09:22.915Z,72.41
2019-02-22T13:12:26.880Z,72.60
2019-02-22T13:15:30.786Z,72.71
2019-02-22T13:18:34.587Z,72.98
2019-02-22T13:21:38.373Z,73.31
2019-02-22T13:24:42.189Z,73.42
2019-02-22T13:27:45.991Z,72.28
2019-02-22T13:30:49.892Z,72.99
2019-02-22T13:33:53.694Z,72.74
2019-02-22T13:36:57.519Z,72.56
2019-02-22T13:40:01.371Z,71.49
2019-02-22T13:43:05.505Z,72.00
2019-02-22T13:46:09.453Z,71.51
2019-02-22T13:49:13.330Z,71.65
2019-02-22T13:52:17.167Z,72.52
2019-02-22T13:55:20.984Z,71.78
2019-02-22T13:58:24.809Z,72.08
2019-02-22T14:01:28.745Z,72.01
2019-02-22T14:04:32.539Z,72.46
2019-02-22T14:07:37.133Z,71.45
2019-02-22T14:10:41.091Z,70.66
2019-02-22T14:13:45.043Z,71.91
2019-02-22T14:16:48.910Z,71.99
2019-02-22T14:19:52.832Z,71.82
2019-02-22T14:22:56.686Z,72.45
2019-02-22T14:26:00.515Z,72.42
2019-02-22T14:29:04.524Z,72.67
2019-02-22T14:32:08.400Z,72.45
2019-02-22T14:35:12.198Z,73.25
2019-02-22T14:38:16.053Z,72.76
2019-02-22T14:41:19.820Z,73.94
2019-02-22T14:44:23.637Z,73.17
2019-02-22T14:47:27.467Z,72.99
2019-02-22T14:50:31.343Z,73.58
2019-02-22T14:53:35.158Z,73.76
2019-02-22T14:56:38.984Z,74.05
2019-02-22T14:59:42.898Z,73.81
2019-02-22T15:02:46.889Z,74.64
2019-02-22T15:05:50.718Z,74.67
2019-02-22T15:08:54.648Z,74.93
2019-02-22T15:11:59.163Z,73.73
2019-02-22T15:15:03.100Z,74.63
2019-02-22T15:18:07.349Z,74.47
2019-02-22T15:21:11.134Z,74.36
2019-02-22T15:24:14.929Z,74.72
2019-02-22T15:27:18.769Z,74.61
2019-02-22T15:30:22.690Z,74.83
2019-02-22T15:33:26.452Z,74.59
2019-02-22T15:36:30.264Z,74.59
2019-02-22T15:39:34.076Z,74.84
2019-02-22T15:42:40.458Z,75.24
2019-02-22T15:45:43.388Z,75.54
2019-02-22T15:48:47.195Z,75.60
2019-02-22T15:51:51.109Z,76.25
2019-02-22T15:54:54.927Z,76.10
2019-02-22T15:57:58.747Z,76.32
2019-02-22T16:01:02.722Z,76.25
2019-02-22T16:04:31.287Z,76.29
2019-02-22T16:07:44.234Z,76.62
2019-02-22T16:10:40.719Z,77.04
2019-02-22T16:13:45.218Z,77.09
2019-02-22T16:16:49.052Z,76.62
2019-02-22T16:19:52.888Z,76.72
2019-02-22T16:22:56.684Z,76.83
2019-02-22T16:26:00.485Z,77.24
2019-02-22T16:29:04.375Z,77.27
2019-02-22T16:32:08.287Z,77.58
2019-02-22T16:35:12.226Z,78.13
2019-02-22T16:38:16.034Z,78.04
2019-02-22T16:41:19.838Z,78.31
2019-02-22T16:44:23.722Z,78.26
2019-02-22T16:47:27.534Z,78.43
2019-02-22T16:50:31.423Z,78.57
2019-02-22T16:53:35.210Z,78.86
2019-02-22T16:56:39.029Z,78.70
2019-02-22T16:59:43.184Z,79.05
2019-02-22T17:02:49.140Z,79.13
2019-02-22T17:05:55.729Z,79.62
2019-02-22T17:13:09.322Z,79.74
2019-02-22T17:16:17.006Z,79.39
2019-02-22T17:41:37.333Z,80.32
2019-02-22T17:44:41.887Z,80.56
2019-02-22T17:47:46.064Z,80.71
2019-02-22T17:50:51.995Z,81.06
2019-02-22T17:53:56.097Z,81.28
2019-02-22T17:57:00.019Z,81.20
2019-02-22T18:00:04.151Z,81.52
2019-02-22T18:03:07.989Z,81.40
2019-02-22T18:06:11.831Z,81.67
2019-02-22T18:09:15.687Z,81.85
2019-02-22T18:12:19.498Z,82.01
2019-02-22T18:15:23.552Z,81.95
2019-02-22T18:18:27.442Z,82.04
2019-02-22T18:21:32.855Z,81.97
2019-02-22T18:24:36.720Z,82.30
2019-02-22T18:27:40.497Z,82.48
2019-02-22T18:30:44.449Z,82.53
2019-02-22T18:33:48.312Z,82.44
2019-02-22T18:36:52.113Z,82.73
2019-02-22T18:39:55.909Z,82.78
2019-02-22T18:42:59.717Z,82.64
2019-02-22T18:46:06.930Z,82.69
2019-02-22T18:49:13.137Z,82.66
2019-02-22T18:52:16.936Z,82.71
2019-02-22T18:55:20.774Z,82.88
2019-02-22T18:58:24.574Z,82.95
2019-02-22T19:01:28.483Z,83.20
2019-02-22T19:04:32.278Z,83.31
2019-02-22T19:07:36.067Z,82.86
2019-02-22T19:10:40.105Z,82.88
2019-02-22T19:13:43.864Z,83.12
2019-02-22T19:16:47.683Z,83.09
2019-02-22T19:19:51.497Z,83.14
2019-02-22T19:22:55.335Z,83.20
2019-02-22T19:25:59.108Z,83.26
2019-02-22T19:29:02.915Z,83.46
2019-02-22T19:32:06.741Z,83.65
2019-02-22T19:35:10.662Z,83.57
2019-02-22T19:38:14.444Z,83.47
2019-02-22T19:41:18.290Z,83.70
2019-02-22T19:44:22.083Z,83.84
2019-02-22T19:47:26.062Z,84.00
2019-02-22T19:50:40.838Z,84.10
2019-02-22T19:53:35.404Z,84.20
2019-02-22T19:56:39.259Z,84.27
2019-02-22T19:59:43.031Z,84.29
2019-02-22T20:02:46.913Z,84.47
2019-02-22T20:05:50.730Z,84.46
2019-02-22T20:08:54.523Z,84.55
2019-02-22T20:11:58.426Z,84.32
2019-02-22T20:15:02.286Z,83.94
2019-02-22T20:18:09.015Z,84.15
2019-02-22T20:21:12.808Z,84.40
2019-02-22T20:24:16.638Z,84.28
2019-02-22T20:27:20.421Z,84.00
2019-02-22T20:30:24.223Z,83.92
2019-02-22T20:33:28.020Z,84.04
2019-02-22T20:36:31.847Z,83.88
2019-02-22T20:39:35.673Z,83.77
2019-02-22T20:42:39.471Z,83.70
2019-02-22T20:45:43.268Z,83.77
2019-02-22T20:48:47.097Z,84.03
2019-02-22T20:51:50.890Z,84.23
2019-02-22T20:54:54.684Z,84.26
2019-02-22T20:57:58.502Z,84.18
2019-02-22T21:01:02.298Z,84.16
2019-02-22T21:04:06.195Z,84.20
2019-02-22T21:07:10.040Z,84.17
2019-02-22T21:10:15.284Z,84.11
2019-02-22T21:13:19.070Z,84.10
2019-02-22T21:16:22.883Z,84.09
2019-02-22T21:19:26.691Z,84.33
2019-02-22T21:22:30.524Z,84.47
2019-02-22T21:25:34.308Z,84.55
2019-02-22T21:28:38.114Z,84.51
2019-02-22T21:31:41.956Z,84.47
2019-02-22T21:34:48.444Z,84.46
2019-02-22T21:37:51.264Z,84.50
2019-02-22T21:40:55.047Z,84.69
2019-02-22T21:43:58.843Z,84.69
2019-02-22T21:47:02.632Z,84.75
2019-02-22T21:50:07.804Z,84.77
2019-02-22T21:53:11.650Z,84.73
2019-02-22T21:56:15.433Z,84.69
2019-02-22T21:59:19.288Z,84.74
2019-02-22T22:02:23.071Z,84.75
2019-02-22T22:05:26.952Z,84.69
2019-02-22T22:08:30.735Z,84.46
2019-02-22T22:11:34.536Z,84.56
2019-02-22T22:14:38.359Z,84.66
2019-02-22T22:17:42.210Z,84.73
2019-02-22T22:20:45.987Z,84.82
2019-02-22T22:23:49.788Z,85.05
2019-02-22T22:26:53.601Z,84.95
2019-02-22T22:29:57.401Z,84.89
2019-02-22T22:33:01.207Z,84.98
2019-02-22T22:36:05.100Z,84.91
2019-02-22T22:39:08.955Z,84.98
2019-02-22T22:42:12.846Z,85.09
2019-02-22T22:45:16.804Z,85.24
2019-02-22T22:48:20.669Z,85.25
2019-02-22T22:51:24.464Z,85.27
2019-02-22T22:54:28.337Z,85.32
2019-02-22T22:57:32.137Z,85.33
2019-02-22T23:00:58.815Z,85.37
2019-02-22T23:04:02.719Z,85.35
2019-02-22T23:07:06.589Z,85.33
2019-02-22T23:10:10.481Z,85.39
2019-02-22T23:13:14.377Z,85.35
2019-02-22T23:16:18.228Z,85.39
2019-02-22T23:19:22.087Z,85.24
2019-02-22T23:22:25.861Z,85.28
2019-02-22T23:25:29.794Z,85.27
2019-02-22T23:28:33.609Z,85.38
2019-02-22T23:31:37.451Z,85.28
2019-02-22T23:34:41.276Z,85.30
2019-02-22T23:37:45.146Z,85.24
2019-02-22T23:40:48.943Z,85.30
2019-02-22T23:43:52.843Z,85.30
2019-02-22T23:46:56.712Z,85.22
2019-02-22T23:50:00.520Z,85.07
2019-02-22T23:53:04.427Z,85.06
2019-02-22T23:56:08.232Z,85.00
2019-02-22T23:59:12.033Z,85.04
